Time;durP1;ratioP1;P1;durP2;ratioP2;P2;SDS_P1;SDS_P2;PMS_P1;PMS_P2;Temp;Humidity;BMP_temperature;BMP_pressure;BME280_temperature;BME280_humidity;BME280_pressure;Samples;Min_cycle;Max_cycle;Signal;HPM_P1;HPM_P2
2022/05/11 00:00:48;;;;;;;6.00;5.50;;;;;;;12.72;100.00;96520.19;5070085;27;101872;-62
2022/05/11 00:03:16;;;;;;;6.13;5.60;;;;;;;12.85;100.00;96522.38;5052111;27;101928;-62
2022/05/11 00:05:43;;;;;;;6.40;5.57;;;;;;;12.81;100.00;96516.75;5051842;27;105588;-62
2022/05/11 00:08:10;;;;;;;6.47;5.80;;;;;;;12.67;100.00;96523.66;5051293;27;105512;-62
2022/05/11 00:10:38;;;;;;;6.10;5.60;;;;;;;12.84;100.00;96518.09;5055117;27;101885;-62
2022/05/11 00:13:05;;;;;;;6.20;5.70;;;;;;;12.73;100.00;96509.28;5055574;27;105453;-62
2022/05/11 00:15:34;;;;;;;5.83;5.37;;;;;;;12.81;100.00;96518.66;5058454;27;105648;-62
2022/05/11 00:18:01;;;;;;;5.77;5.30;;;;;;;12.80;100.00;96512.50;5072414;27;105138;-62
2022/05/11 00:20:29;;;;;;;7.40;6.47;;;;;;;12.83;100.00;96511.16;5054538;27;105492;-62
2022/05/11 00:22:56;;;;;;;5.97;5.47;;;;;;;12.80;100.00;96509.03;5073542;27;101683;-62
2022/05/11 00:25:25;;;;;;;5.80;5.30;;;;;;;12.69;100.00;96510.03;5073949;27;102624;-62
2022/05/11 00:27:53;;;;;;;6.43;5.73;;;;;;;12.54;100.00;96509.97;5073027;27;102870;-62
2022/05/11 00:30:21;;;;;;;5.93;5.40;;;;;;;12.37;100.00;96528.03;5073772;27;101915;-62
2022/05/11 00:32:52;;;;;;;5.23;4.83;;;;;;;12.29;100.00;96512.50;5073906;27;102323;-63
2022/05/11 00:35:19;;;;;;;7.47;5.97;;;;;;;12.25;100.00;96514.06;5054598;27;105542;-62
2022/05/11 00:37:46;;;;;;;5.57;5.17;;;;;;;12.28;100.00;96510.91;5076932;27;101845;-62
2022/05/11 00:40:13;;;;;;;6.67;5.80;;;;;;;12.30;100.00;96511.44;5072997;27;102646;-62
2022/05/11 00:42:40;;;;;;;6.53;5.67;;;;;;;12.22;100.00;96509.25;5055126;27;101975;-62
2022/05/11 00:45:09;;;;;;;6.37;5.77;;;;;;;12.22;100.00;96511.94;5073493;27;102567;-62
2022/05/11 00:47:40;;;;;;;6.20;5.67;;;;;;;12.19;100.00;96509.75;5054363;27;105241;-62
2022/05/11 00:50:12;;;;;;;7.00;6.37;;;;;;;12.17;100.00;96510.03;5054988;27;102020;-62
2022/05/11 00:52:44;;;;;;;6.20;5.70;;;;;;;12.30;100.00;96509.56;5055149;27;104774;-62
2022/05/11 00:55:16;;;;;;;6.60;6.00;;;;;;;12.05;100.00;96516.63;5054356;27;104591;-62
2022/05/11 00:57:49;;;;;;;6.23;5.63;;;;;;;12.19;100.00;96517.75;5076889;27;101728;-62
2022/05/11 01:00:19;;;;;;;6.70;6.10;;;;;;;12.07;100.00;96507.31;5072894;27;102554;-62
2022/05/11 01:02:49;;;;;;;6.63;6.10;;;;;;;11.99;100.00;96513.09;5054660;27;102307;-62
2022/05/11 01:05:18;;;;;;;20.40;6.07;;;;;;;12.02;100.00;96511.78;5054926;27;103725;-62
2022/05/11 01:07:45;;;;;;;6.83;5.97;;;;;;;11.99;100.00;96502.44;5054214;27;105989;-62
2022/05/11 01:10:12;;;;;;;8.07;6.37;;;;;;;12.10;100.00;96509.44;5054386;27;101922;-62
2022/05/11 01:12:43;;;;;;;6.60;6.00;;;;;;;11.99;100.00;96501.66;5073170;27;102379;-63
2022/05/11 01:15:13;;;;;;;6.60;6.00;;;;;;;12.03;100.00;96500.06;5072385;27;102621;-62
2022/05/11 01:17:41;;;;;;;6.87;6.27;;;;;;;12.07;100.00;96490.50;5072952;27;101786;-63
2022/05/11 01:20:13;;;;;;;7.00;6.40;;;;;;;11.71;100.00;96492.09;5057257;27;103878;-62
2022/05/11 01:22:48;;;;;;;6.20;5.70;;;;;;;11.62;100.00;96498.16;5072169;27;101831;-63
2022/05/11 01:25:17;;;;;;;6.93;6.33;;;;;;;11.74;100.00;96494.28;5072944;27;102829;-62
2022/05/11 01:27:46;;;;;;;7.03;5.73;;;;;;;11.59;100.00;96493.31;5072357;27;102575;-62
2022/05/11 01:30:15;;;;;;;7.33;6.63;;;;;;;11.59;100.00;96498.66;5054232;27;101926;-62
2022/05/11 01:32:44;;;;;;;8.60;6.80;;;;;;;11.74;100.00;96496.13;5054335;27;103900;-62
2022/05/11 01:35:29;;;;;;;6.87;6.17;;;;;;;11.70;100.00;96495.00;5053666;27;104211;-62
2022/05/11 01:38:17;;;;;;;6.90;6.30;;;;;;;11.68;100.00;96500.63;5072877;27;101958;-62
2022/05/11 01:40:45;;;;;;;7.27;6.57;;;;;;;11.59;100.00;96510.13;5073078;27;102399;-62
2022/05/11 01:43:16;;;;;;;8.07;6.50;;;;;;;11.55;100.00;96502.88;5075502;27;102903;-62
2022/05/11 01:45:43;;;;;;;7.77;5.97;;;;;;;11.54;100.00;96503.91;5072866;27;102571;-62
2022/05/11 01:48:10;;;;;;;6.90;5.70;;;;;;;11.50;100.00;96495.63;5071625;27;101711;-62
2022/05/11 01:50:37;;;;;;;6.33;5.80;;;;;;;11.46;100.00;96499.06;5072505;27;101811;-62
2022/05/11 01:53:05;;;;;;;6.97;6.33;;;;;;;11.53;100.00;96505.78;5072637;27;102422;-62
2022/05/11 01:55:32;;;;;;;7.73;6.00;;;;;;;11.36;100.00;96498.97;5071680;27;102873;-62
2022/05/11 01:58:01;;;;;;;6.87;6.17;;;;;;;11.42;100.00;96503.28;5072504;27;101879;-62
2022/05/11 02:00:28;;;;;;;7.03;5.90;;;;;;;11.42;100.00;96503.28;5072370;27;102437;-62
2022/05/11 02:02:55;;;;;;;7.17;6.03;;;;;;;11.48;100.00;96499.59;5071819;27;102640;-63
2022/05/11 02:08:07;;;;;;;6.40;5.80;;;;;;;11.31;100.00;96490.91;5052998;27;105955;-62
2022/05/11 02:10:35;;;;;;;6.40;5.80;;;;;;;11.26;100.00;96494.34;5070867;27;102020;-62
2022/05/11 02:13:04;;;;;;;6.70;6.10;;;;;;;11.17;100.00;96487.84;5053480;27;105502;-62
2022/05/11 02:15:31;;;;;;;6.20;5.50;;;;;;;11.10;100.00;96489.09;5053046;27;105031;-62
2022/05/11 02:17:57;;;;;;;6.87;6.27;;;;;;;11.11;100.00;96485.38;5070268;27;102886;-62
2022/05/11 02:20:25;;;;;;;6.93;6.33;;;;;;;11.04;100.00;96492.78;5053613;27;105191;-62
2022/05/11 02:22:53;;;;;;;6.40;5.70;;;;;;;10.95;100.00;96486.31;5070797;27;104733;-62
2022/05/11 02:25:20;;;;;;;7.03;6.43;;;;;;;10.96;100.00;96494.00;5072011;27;101784;-62
2022/05/11 02:27:49;;;;;;;6.40;5.73;;;;;;;11.00;100.00;96489.00;5074917;27;102326;-62
2022/05/11 02:30:21;;;;;;;6.67;6.10;;;;;;;10.95;100.00;96481.78;5053398;27;101958;-62
2022/05/11 02:32:48;;;;;;;6.97;6.33;;;;;;;10.87;100.00;96494.72;5053449;27;105453;-62
2022/05/11 02:35:17;;;;;;;6.73;5.83;;;;;;;10.85;100.00;96494.97;5071358;27;102832;-63
2022/05/11 02:37:46;;;;;;;6.47;5.87;;;;;;;10.85;100.00;96491.50;5053204;27;101946;-62
2022/05/11 02:40:20;;;;;;;7.17;6.47;;;;;;;10.87;100.00;96489.41;5071429;27;102818;-62
2022/05/11 02:42:48;;;;;;;7.07;6.40;;;;;;;10.87;100.00;96490.22;5071228;27;102588;-62
2022/05/11 02:45:17;;;;;;;6.80;6.10;;;;;;;10.83;100.00;96490.94;5071490;27;102085;-63
2022/05/11 02:47:45;;;;;;;6.80;6.23;;;;;;;10.95;100.00;96494.28;5053126;27;105264;-62
2022/05/11 02:50:18;;;;;;;7.00;6.40;;;;;;;10.87;100.00;96487.56;5055765;27;105100;-62
2022/05/11 02:52:45;;;;;;;6.43;5.83;;;;;;;10.73;100.00;96493.47;5053090;27;105090;-62
2022/05/11 02:55:13;;;;;;;6.63;6.00;;;;;;;10.70;100.00;96486.81;5052365;27;105334;-62
2022/05/11 02:57:40;;;;;;;6.67;6.10;;;;;;;10.76;100.00;96490.34;5071180;27;101947;-62
2022/05/11 03:00:10;;;;;;;6.60;5.93;;;;;;;10.87;100.00;96495.53;5052893;27;106223;-62
2022/05/11 03:02:38;;;;;;;7.07;6.03;;;;;;;10.71;100.00;96495.59;5052302;27;105267;-62
2022/05/11 03:05:06;;;;;;;6.00;5.50;;;;;;;10.55;100.00;96494.63;5071362;27;101879;-62
2022/05/11 03:07:33;;;;;;;6.13;5.50;;;;;;;10.58;100.00;96491.44;5071254;27;102572;-62
2022/05/11 03:10:00;;;;;;;6.47;5.37;;;;;;;10.55;100.00;96496.47;5072573;27;105315;-62
2022/05/11 03:12:27;;;;;;;6.40;5.87;;;;;;;10.49;100.00;96492.94;5070884;27;103043;-62
2022/05/11 03:14:54;;;;;;;7.87;5.83;;;;;;;10.49;100.00;96494.78;5070806;27;103249;-62
2022/05/11 03:17:22;;;;;;;6.73;6.03;;;;;;;10.45;100.00;96496.31;5070482;27;101927;-62
2022/05/11 03:19:50;;;;;;;7.33;6.03;;;;;;;10.44;100.00;96498.19;5070871;27;102304;-62
2022/05/11 03:22:17;;;;;;;7.50;6.67;;;;;;;10.40;100.00;96494.41;5069829;27;102584;-62
2022/05/11 03:24:44;;;;;;;7.10;6.40;;;;;;;10.52;100.00;96496.97;5070400;27;102089;-62
2022/05/11 03:27:11;;;;;;;6.80;6.00;;;;;;;10.48;100.00;96501.16;5070296;27;102512;-62
2022/05/11 03:29:38;;;;;;;8.87;6.10;;;;;;;10.60;100.00;96505.31;5051349;27;104096;-62
2022/05/11 03:34:52;;;;;;;7.53;6.73;;;;;;;10.63;100.00;96494.16;5070306;27;102780;-62
2022/05/11 03:37:20;;;;;;;7.23;6.53;;;;;;;10.61;100.00;96503.44;5070922;27;101807;-62
2022/05/11 03:39:48;;;;;;;6.97;6.37;;;;;;;10.74;100.00;96497.78;5052364;27;104996;-62
2022/05/11 03:42:17;;;;;;;8.27;7.47;;;;;;;10.84;100.00;96497.91;5069962;27;103040;-62
2022/05/11 03:44:44;;;;;;;7.97;7.17;;;;;;;10.89;100.00;96498.75;5073259;27;101841;-62
2022/05/11 03:47:11;;;;;;;7.50;6.90;;;;;;;10.83;100.00;96496.25;5058881;27;103579;-63
2022/05/11 03:49:38;;;;;;;7.57;6.40;;;;;;;10.78;100.00;96498.84;5076809;27;102693;-62
2022/05/11 03:52:08;;;;;;;8.80;6.80;;;;;;;10.88;100.00;96504.31;5077501;27;101922;-62
2022/05/11 03:54:35;;;;;;;7.67;6.90;;;;;;;10.91;100.00;96499.28;5061800;27;104526;-62
2022/05/11 03:57:02;;;;;;;7.83;7.13;;;;;;;10.91;100.00;96506.47;5076816;27;101961;-62
2022/05/11 03:59:29;;;;;;;8.10;7.40;;;;;;;11.06;100.00;96510.09;5077553;27;102473;-62
2022/05/11 04:01:56;;;;;;;7.47;6.77;;;;;;;11.09;100.00;96493.66;5077127;27;102832;-62
2022/05/11 04:04:23;;;;;;;7.83;7.13;;;;;;;11.24;100.00;96506.28;5059342;27;101898;-62
2022/05/11 04:06:50;;;;;;;7.47;6.87;;;;;;;11.28;100.00;96505.53;5077747;27;101697;-62
2022/05/11 04:09:19;;;;;;;7.90;6.87;;;;;;;11.32;100.00;96505.81;5076952;27;102632;-62
2022/05/11 04:12:17;;;;;;;7.30;6.60;;;;;;;11.37;100.00;96506.69;5077339;27;101946;-62
2022/05/11 04:14:47;;;;;;;7.80;6.87;;;;;;;11.39;100.00;96501.13;5059094;27;104812;-62
2022/05/11 04:17:14;;;;;;;8.30;7.50;;;;;;;11.52;100.00;96504.19;5061628;27;104197;-62
2022/05/11 04:19:41;;;;;;;7.20;6.60;;;;;;;11.56;100.00;96502.59;5077560;27;102565;-62
2022/05/11 04:22:11;;;;;;;8.03;7.23;;;;;;;11.66;100.00;96507.25;5058402;27;105045;-62
2022/05/11 04:24:39;;;;;;;14.73;9.60;;;;;;;11.72;100.00;96500.91;5036303;27;101813;-62
2022/05/11 04:27:07;;;;;;;12.13;8.93;;;;;;;11.70;100.00;96500.34;5035228;28;103795;-62
2022/05/11 04:29:36;;;;;;;13.67;9.13;;;;;;;11.79;100.00;96501.50;5035913;28;103177;-62
2022/05/11 04:32:20;;;;;;;10.50;9.00;;;;;;;11.88;100.00;96500.75;5036461;28;101945;-62
2022/05/11 04:34:50;;;;;;;12.03;8.73;;;;;;;12.01;100.00;96503.00;5036184;28;101848;-62
2022/05/11 04:37:17;;;;;;;12.07;9.10;;;;;;;11.98;100.00;96500.84;5034473;28;105350;-62
2022/05/11 04:39:46;;;;;;;14.97;9.27;;;;;;;12.12;100.00;96495.88;5038271;28;101967;-62
2022/05/11 04:42:14;;;;;;;13.67;9.03;;;;;;;12.24;100.00;96502.63;5034374;28;104371;-62
2022/05/11 04:44:41;;;;;;;13.53;9.00;;;;;;;12.35;100.00;96508.78;5034848;28;101896;-62
2022/05/11 04:47:09;;;;;;;14.33;9.23;;;;;;;12.45;100.00;96504.34;5034953;28;105345;-62
2022/05/11 04:49:36;;;;;;;11.73;9.27;;;;;;;12.59;100.00;96507.34;5035576;28;102658;-62
2022/05/11 04:52:34;;;;;;;10.00;9.00;;;;;;;12.75;100.00;96514.34;5036159;28;102073;-62
2022/05/11 04:55:05;;;;;;;10.80;8.50;;;;;;;12.77;100.00;96504.22;5035570;27;102530;-63
2022/05/11 04:57:33;;;;;;;11.63;8.40;;;;;;;12.89;100.00;96510.13;5030249;28;103964;-62
2022/05/11 05:00:00;;;;;;;10.60;8.60;;;;;;;13.00;100.00;96509.94;5032911;28;101873;-62
2022/05/11 05:02:28;;;;;;;9.53;7.97;;;;;;;13.08;100.00;96511.31;5034319;28;103846;-62
2022/05/11 05:04:59;;;;;;;11.27;9.10;;;;;;;13.14;100.00;96507.56;5031480;28;101861;-63
2022/05/11 05:07:27;;;;;;;9.50;7.40;;;;;;;13.21;100.00;96503.59;5032842;27;102501;-62
2022/05/11 05:09:54;;;;;;;8.17;7.33;;;;;;;13.30;100.00;96511.91;5030364;28;105954;-62
2022/05/11 05:16:29;;;;;;;8.63;7.77;;;;;;;13.47;100.00;96512.44;5032627;28;102615;-62
2022/05/11 05:18:58;;;;;;;11.47;7.63;;;;;;;13.48;100.00;96511.38;5030593;28;105905;-62
2022/05/11 05:21:32;;;;;;;8.00;7.20;;;;;;;13.50;100.00;96504.69;5032273;28;101868;-62
2022/05/11 05:23:59;;;;;;;8.33;7.23;;;;;;;13.59;100.00;96499.63;5033272;27;103706;-62
2022/05/11 05:26:27;;;;;;;8.70;7.90;;;;;;;13.73;100.00;96516.75;5032185;27;102059;-62
2022/05/11 05:31:43;;;;;;;8.33;7.53;;;;;;;14.06;100.00;96505.53;5031815;28;103273;-62
2022/05/11 05:34:12;;;;;;;8.77;7.87;;;;;;;14.33;100.00;96508.72;5032462;28;101949;-62
2022/05/11 05:36:39;;;;;;;9.13;7.50;;;;;;;14.59;100.00;96519.09;5032067;27;104352;-62
2022/05/11 05:39:06;;;;;;;8.27;7.57;;;;;;;14.81;100.00;96516.88;5030017;28;106641;-62
2022/05/11 05:41:34;;;;;;;8.33;7.50;;;;;;;15.01;100.00;96511.44;5032177;28;101909;-62
2022/05/11 05:44:01;;;;;;;8.50;7.43;;;;;;;15.22;100.00;96521.00;5030603;28;105786;-63
2022/05/11 05:46:28;;;;;;;8.27;7.47;;;;;;;15.49;100.00;96515.22;5034631;28;102788;-62
2022/05/11 05:48:55;;;;;;;8.17;7.40;;;;;;;15.71;100.00;96515.63;5032113;28;102955;-62
2022/05/11 05:51:25;;;;;;;7.53;6.53;;;;;;;15.79;100.00;96513.13;5031209;28;103266;-63
2022/05/11 05:53:52;;;;;;;11.07;6.67;;;;;;;15.85;100.00;96508.53;5031699;28;101758;-62
2022/05/11 05:56:19;;;;;;;6.57;5.97;;;;;;;15.94;100.00;96499.63;5031721;28;102515;-62
2022/05/11 05:58:46;;;;;;;6.20;5.13;;;;;;;16.13;100.00;96513.94;5030808;28;103244;-62
2022/05/11 06:01:14;;;;;;;5.93;5.30;;;;;;;16.22;100.00;96511.44;5031683;28;101720;-62
2022/05/11 06:03:42;;;;;;;6.40;5.80;;;;;;;16.53;100.00;96504.72;5031412;28;103363;-63
2022/05/11 06:06:10;;;;;;;6.10;4.90;;;;;;;16.58;100.00;96507.34;5030971;28;102660;-62
2022/05/11 06:08:39;;;;;;;5.37;4.90;;;;;;;16.70;100.00;96505.88;5034388;28;101836;-62
2022/05/11 06:11:08;;;;;;;5.67;4.63;;;;;;;16.90;100.00;96505.63;5030822;28;103995;-62
2022/05/11 06:13:36;;;;;;;5.10;4.70;;;;;;;17.15;100.00;96505.31;5029850;28;101891;-62
2022/05/11 06:16:09;;;;;;;6.73;4.63;;;;;;;17.32;100.00;96505.63;5012896;28;105130;-62
2022/05/11 06:18:36;;;;;;;5.23;4.73;;;;;;;17.33;100.00;96509.13;5029292;28;106083;-62
2022/05/11 06:21:04;;;;;;;5.37;4.87;;;;;;;17.46;100.00;96503.88;5031045;28;102143;-62
2022/05/11 06:23:31;;;;;;;4.63;4.23;;;;;;;17.41;100.00;96506.63;5029582;27;104096;-62
2022/05/11 06:25:59;;;;;;;5.03;4.03;;;;;;;17.64;100.00;96503.03;5030843;28;102584;-62
2022/05/11 06:28:26;;;;;;;5.90;4.10;;;;;;;18.11;100.00;96504.72;5031088;28;101857;-62
2022/05/11 06:30:53;;;;;;;4.33;3.70;;;;;;;18.17;100.00;96504.34;5032437;28;105669;-63
2022/05/11 06:33:20;;;;;;;4.37;3.97;;;;;;;18.30;100.00;96497.38;5029631;28;101869;-62
2022/05/11 06:35:47;;;;;;;3.80;3.50;;;;;;;18.33;100.00;96503.03;5031006;28;102437;-62
2022/05/11 06:38:14;;;;;;;5.57;3.70;;;;;;;18.47;100.00;96503.84;5030270;28;103225;-62
2022/05/11 06:40:42;;;;;;;4.27;3.77;;;;;;;18.65;100.00;96504.88;5031105;27;101886;-63
2022/05/11 06:43:10;;;;;;;4.47;4.07;;;;;;;18.95;100.00;96509.66;5031114;28;102634;-62
2022/05/11 06:45:37;;;;;;;4.23;2.93;;;;;;;19.07;100.00;96518.06;5030204;27;102885;-63
2022/05/11 06:48:04;;;;;;;6.00;3.33;;;;;;;19.00;100.00;96506.84;5030995;28;101903;-63
2022/05/11 06:50:31;;;;;;;3.60;3.00;;;;;;;19.10;100.00;96509.34;5030620;28;104065;-63
2022/05/11 06:52:58;;;;;;;3.90;3.23;;;;;;;19.10;100.00;96503.97;5032369;28;105360;-63
2022/05/11 07:01:10;;;;;;;2.97;2.77;;;;;;;19.87;100.00;96494.72;5030342;27;101929;-63
2022/05/11 07:03:37;;;;;;;3.30;3.00;;;;;;;19.97;100.00;96495.28;5030254;28;102576;-63
2022/05/11 07:06:05;;;;;;;3.00;2.70;;;;;;;20.17;100.00;96496.72;5029922;28;102778;-63
2022/05/11 07:08:37;;;;;;;3.87;2.60;;;;;;;20.38;100.00;96492.41;5030641;28;102082;-63
2022/05/11 07:13:52;;;;;;;3.27;2.90;;;;;;;20.97;100.00;96497.28;5029513;28;103110;-63
2022/05/11 07:16:21;;;;;;;3.27;2.73;;;;;;;20.97;100.00;96486.47;5032080;28;102027;-63
2022/05/11 07:18:48;;;;;;;3.30;2.60;;;;;;;21.08;100.00;96490.50;5028870;27;102937;-62
2022/05/11 07:21:15;;;;;;;5.03;2.63;;;;;;;21.46;100.00;96488.81;5030517;28;101832;-63
2022/05/11 07:23:42;;;;;;;5.70;3.00;;;;;;;21.56;100.00;96494.72;5051582;27;102380;-63
2022/05/11 07:26:09;;;;;;;2.63;2.43;;;;;;;21.33;100.00;96495.16;5070477;27;102669;-63
2022/05/11 07:28:37;;;;;;;3.90;2.63;;;;;;;21.27;100.00;96491.81;5071011;27;101840;-63
2022/05/11 07:31:05;;;;;;;4.57;2.80;;;;;;;21.26;100.00;96492.91;5070978;27;102951;-63
2022/05/11 07:33:33;;;;;;;2.80;2.60;;;;;;;21.40;100.00;96498.19;5051819;27;105223;-63
2022/05/11 07:36:00;;;;;;;2.80;2.60;;;;;;;21.18;100.00;96485.59;5072932;27;102006;-63
2022/05/11 07:38:27;;;;;;;4.53;2.60;;;;;;;21.39;100.00;96488.50;5070059;27;102546;-63
2022/05/11 07:40:54;;;;;;;3.67;2.63;;;;;;;21.52;100.00;96482.16;5070717;27;101980;-63
2022/05/11 07:43:22;;;;;;;3.93;2.73;;;;;;;21.93;100.00;96487.91;5069524;27;106650;-63
2022/05/11 07:45:49;;;;;;;3.30;2.70;;;;;;;22.25;100.00;96482.00;5069994;27;102918;-63
2022/05/11 07:48:20;;;;;;;3.03;2.57;;;;;;;22.33;99.94;96483.88;5070833;27;101939;-63
2022/05/11 07:50:47;;;;;;;3.00;2.70;;;;;;;22.11;100.00;96479.47;5052231;27;106404;-63
2022/05/11 07:53:14;;;;;;;3.27;2.40;;;;;;;22.15;100.00;96480.41;5068354;27;103936;-63
2022/05/11 07:55:41;;;;;;;3.17;2.80;;;;;;;22.64;100.00;96482.56;5052324;27;102316;-63
2022/05/11 08:00:56;;;;;;;3.57;2.60;;;;;;;22.46;89.46;96474.78;5052147;27;102027;-63
2022/05/11 08:03:24;;;;;;;2.73;2.40;;;;;;;22.89;89.96;96478.94;5052144;27;104827;-63
2022/05/11 08:05:52;;;;;;;4.00;2.70;;;;;;;23.03;89.82;96484.13;5051141;27;105332;-63
2022/05/11 08:08:19;;;;;;;3.47;2.27;;;;;;;23.17;91.13;96482.00;5068961;27;101936;-63
2022/05/11 08:10:48;;;;;;;2.97;2.67;;;;;;;23.43;85.57;96479.97;5068929;27;105912;-63
2022/05/11 08:13:16;;;;;;;2.80;2.40;;;;;;;23.42;89.50;96481.06;5070016;27;103262;-63
2022/05/11 08:15:47;;;;;;;4.90;2.23;;;;;;;23.90;87.04;96478.66;5069985;27;101922;-63
2022/05/11 08:18:15;;;;;;;2.90;2.40;;;;;;;23.87;79.29;96473.88;5051685;27;105298;-63
2022/05/11 08:20:46;;;;;;;3.83;2.40;;;;;;;23.87;73.89;96474.66;5073172;27;102543;-63
2022/05/11 08:23:14;;;;;;;3.07;2.37;;;;;;;24.08;79.17;96470.03;5051300;27;105098;-63
2022/05/11 08:25:43;;;;;;;2.47;2.27;;;;;;;24.04;78.45;96474.53;5068363;27;104345;-63
2022/05/11 08:28:12;;;;;;;3.07;2.37;;;;;;;24.29;78.25;96469.97;5069768;27;102282;-63
2022/05/11 08:33:26;;;;;;;3.40;2.43;;;;;;;24.40;73.37;96469.22;5073067;27;103509;-63
2022/05/11 08:35:58;;;;;;;2.30;1.87;;;;;;;24.75;68.10;96470.44;5055711;27;101824;-63
2022/05/11 08:38:28;;;;;;;2.43;1.90;;;;;;;25.24;66.40;96463.88;5073501;27;102345;-63
2022/05/11 08:41:00;;;;;;;3.23;2.17;;;;;;;24.68;67.03;96464.78;5054673;27;105715;-63
2022/05/11 08:43:31;;;;;;;2.40;2.20;;;;;;;24.99;56.44;96464.25;5058556;27;102034;-63
2022/05/11 08:46:07;;;;;;;2.20;2.10;;;;;;;25.14;54.01;96466.28;5073045;27;103143;-63
2022/05/11 08:48:40;;;;;;;2.00;1.80;;;;;;;25.31;51.65;96456.00;5073765;27;102359;-63
2022/05/11 08:51:13;;;;;;;2.17;1.97;;;;;;;25.20;52.57;96464.91;5073479;27;102336;-63
2022/05/11 08:53:42;;;;;;;2.07;1.97;;;;;;;25.43;54.24;96466.06;5071455;27;105484;-63
2022/05/11 08:56:16;;;;;;;2.73;2.30;;;;;;;25.19;53.08;96461.44;5072030;27;101901;-63
2022/05/11 08:58:48;;;;;;;2.90;2.00;;;;;;;25.15;51.99;96463.22;5073371;27;102679;-63
2022/05/11 09:01:20;;;;;;;2.87;1.80;;;;;;;25.55;49.91;96463.34;5072399;27;102665;-63
2022/05/11 09:03:53;;;;;;;1.93;1.83;;;;;;;25.63;49.82;96465.13;5073159;27;101713;-63
2022/05/11 09:06:26;;;;;;;2.47;2.00;;;;;;;25.55;46.72;96466.06;5076037;27;102879;-63
2022/05/11 09:08:54;;;;;;;2.60;2.20;;;;;;;25.96;48.79;96458.38;5073082;27;101696;-63
2022/05/11 09:11:28;;;;;;;2.10;1.90;;;;;;;25.56;44.25;96457.53;5073232;27;102915;-63
2022/05/11 09:13:58;;;;;;;2.53;1.97;;;;;;;25.82;44.83;96465.31;5072694;27;102876;-63
2022/05/11 09:16:27;;;;;;;1.80;1.70;;;;;;;25.71;43.40;96464.22;5073084;27;101865;-63
2022/05/11 09:18:56;;;;;;;3.27;1.80;;;;;;;26.06;43.42;96457.06;5073187;27;102249;-63
2022/05/11 09:21:41;;;;;;;2.13;1.93;;;;;;;26.44;40.86;96457.34;5072211;27;102539;-63
2022/05/11 09:24:22;;;;;;;2.43;1.87;;;;;;;26.47;42.97;96453.91;5072663;27;101785;-63
2022/05/11 09:27:02;;;;;;;1.83;1.73;;;;;;;26.60;43.61;96453.50;5071659;27;105366;-63
2022/05/11 09:29:35;;;;;;;1.97;1.77;;;;;;;26.69;42.43;96450.63;5075428;27;102159;-63
2022/05/11 09:32:24;;;;;;;2.17;2.07;;;;;;;26.94;41.95;96463.75;5054362;27;105532;-63
2022/05/11 09:34:52;;;;;;;1.73;1.63;;;;;;;26.77;43.77;96458.66;5071829;27;102619;-63
2022/05/11 09:37:36;;;;;;;2.97;1.90;;;;;;;26.05;41.91;96456.25;5072765;27;101760;-63
2022/05/11 09:40:11;;;;;;;1.90;1.80;;;;;;;25.72;43.01;96452.94;5072908;27;102364;-63
2022/05/11 09:42:50;;;;;;;3.00;2.00;;;;;;;25.97;42.50;96446.31;5071387;27;103297;-63
2022/05/11 09:45:38;;;;;;;2.83;2.07;;;;;;;26.20;42.41;96449.28;5072369;27;101840;-63
2022/05/11 09:48:13;;;;;;;2.03;1.90;;;;;;;26.30;41.76;96443.31;5072778;27;102338;-63
2022/05/11 09:50:42;;;;;;;3.33;1.83;;;;;;;26.35;41.94;96446.59;5074007;27;105513;-63
2022/05/11 09:53:24;;;;;;;1.93;1.83;;;;;;;26.42;42.12;96446.00;5072651;27;102407;-63
2022/05/11 09:55:53;;;;;;;2.63;1.93;;;;;;;26.28;40.84;96443.69;5052981;27;104724;-63
2022/05/11 09:58:31;;;;;;;3.40;1.97;;;;;;;26.81;39.78;96437.69;5072287;27;102519;-63
2022/05/11 10:01:11;;;;;;;2.03;1.93;;;;;;;27.40;42.23;96438.34;5072306;27;102690;-63
2022/05/11 10:03:43;;;;;;;2.07;1.80;;;;;;;27.81;41.55;96442.38;5071999;27;102839;-63
2022/05/11 10:06:12;;;;;;;2.07;1.63;;;;;;;28.25;40.11;96436.25;5072470;27;102014;-63
2022/05/11 10:08:44;;;;;;;2.93;2.07;;;;;;;28.35;40.64;96430.22;5072124;27;102992;-63
2022/05/11 10:11:18;;;;;;;2.33;1.87;;;;;;;28.22;41.35;96434.25;5071216;27;102715;-63
2022/05/11 10:13:52;;;;;;;2.13;1.93;;;;;;;27.88;39.04;96429.66;5075731;27;102048;-63
2022/05/11 10:22:06;;;;;;;2.37;1.90;;;;;;;27.55;37.22;96428.50;5053435;27;105239;-63
2022/05/11 10:24:47;;;;;;;1.83;1.73;;;;;;;27.36;38.23;96428.50;5071408;27;103137;-63
2022/05/11 10:27:20;;;;;;;2.97;1.80;;;;;;;27.01;39.38;96424.91;5071984;27;101796;-63
2022/05/11 10:30:03;;;;;;;3.43;1.80;;;;;;;27.34;37.11;96420.66;5070502;27;103769;-63
2022/05/11 10:32:37;;;;;;;2.57;1.80;;;;;;;27.85;37.57;96416.69;5071210;27;102897;-63
2022/05/11 10:35:12;;;;;;;1.83;1.73;;;;;;;28.00;35.96;96415.06;5072011;27;101696;-63
2022/05/11 10:37:56;;;;;;;1.80;1.70;;;;;;;28.21;37.00;96415.44;5056008;27;104179;-63
2022/05/11 10:40:30;;;;;;;1.87;1.77;;;;;;;28.61;36.99;96407.63;5053364;27;101796;-63
2022/05/11 10:43:15;;;;;;;1.80;1.70;;;;;;;28.15;35.57;96406.75;5071860;27;102812;-63
2022/05/11 10:45:49;;;;;;;2.07;1.67;;;;;;;28.78;36.71;96396.19;5071084;27;103167;-63
2022/05/11 10:48:35;;;;;;;3.40;1.90;;;;;;;28.92;35.91;96396.41;5070195;27;101916;-63
2022/05/11 10:51:08;;;;;;;1.92;1.70;;;;;;;28.82;34.59;96397.81;5071812;27;102398;-63
2022/05/11 10:53:42;;;;;;;1.83;1.70;;;;;;;29.25;34.00;96388.34;5069721;27;102917;-63
2022/05/11 10:56:31;;;;;;;1.80;1.70;;;;;;;28.32;34.84;96389.09;5052963;27;102211;-63
2022/05/11 10:59:25;;;;;;;1.53;1.47;;;;;;;28.38;35.25;96383.00;5070095;27;105236;-63
2022/05/11 11:02:11;;;;;;;1.80;1.70;;;;;;;27.99;33.65;96386.13;5074206;27;104156;-63
2022/05/11 11:04:54;;;;;;;1.67;1.57;;;;;;;27.70;33.56;96373.00;5071616;27;102567;-63
2022/05/11 11:07:28;;;;;;;2.60;1.73;;;;;;;28.30;34.85;96372.25;5070731;27;102578;-63
2022/05/11 11:10:14;;;;;;;1.87;1.50;;;;;;;28.97;35.10;96369.53;5071522;27;101928;-63
2022/05/11 11:13:08;;;;;;;1.98;1.80;;;;;;;29.38;35.29;96365.03;5071264;27;102871;-63
2022/05/11 11:15:39;;;;;;;1.80;1.70;;;;;;;29.66;34.43;96370.94;5034184;27;102638;-63
2022/05/11 11:18:07;;;;;;;1.80;1.70;;;;;;;30.17;34.51;96358.22;5071000;27;101704;-63
2022/05/11 11:20:37;;;;;;;1.75;1.50;;;;;;;30.17;32.22;96352.72;5052798;27;105662;-63
2022/05/11 11:23:08;;;;;;;2.33;1.40;;;;;;;30.22;34.29;96352.38;5070128;27;102623;-63
2022/05/11 11:25:51;;;;;;;1.77;1.67;;;;;;;30.86;32.86;96346.31;5074415;27;101744;-63
2022/05/11 11:28:22;;;;;;;1.80;1.70;;;;;;;30.53;33.18;96347.22;5035589;27;105991;-63
2022/05/11 11:31:15;;;;;;;4.30;1.98;;;;;;;30.55;31.20;96339.38;5071358;27;101678;-63
2022/05/11 11:34:19;;;;;;;1.95;1.65;;;;;;;29.71;30.00;96343.19;5070863;27;102897;-63
2022/05/11 11:36:47;;;;;;;1.60;1.50;;;;;;;30.13;29.90;96338.22;5051937;27;104063;-63
2022/05/11 11:39:54;;;;;;;1.90;1.80;;;;;;;29.69;30.41;96329.84;5070746;27;101857;-63
2022/05/11 11:42:34;;;;;;;1.92;1.60;;;;;;;30.04;34.19;96324.75;5052465;27;105050;-63
2022/05/11 11:45:04;;;;;;;1.88;1.75;;;;;;;30.14;31.32;96323.31;5070211;27;103178;-63
2022/05/11 11:47:40;;;;;;;1.50;1.40;;;;;;;30.72;30.67;96325.03;5074380;27;101757;-63
2022/05/11 11:50:34;;;;;;;1.77;1.50;;;;;;;30.76;30.87;96322.31;5070070;27;102500;-63
2022/05/11 11:53:13;;;;;;;1.60;1.50;;;;;;;29.53;30.81;96320.22;5051656;27;101939;-63
2022/05/11 11:55:41;;;;;;;1.50;1.40;;;;;;;29.60;30.60;96317.59;5070668;27;102346;-63
2022/05/11 11:58:25;;;;;;;1.70;1.60;;;;;;;30.28;32.88;96310.53;5070052;27;102074;-63
2022/05/11 12:01:00;;;;;;;1.67;1.58;;;;;;;29.48;30.87;96310.38;5052160;27;101825;-63
2022/05/11 12:03:30;;;;;;;1.60;1.50;;;;;;;29.47;29.59;96310.75;5070662;27;102986;-63
2022/05/11 12:15:01;;;;;;;1.70;1.60;;;;;;;30.45;30.79;96306.38;5071840;27;102633;-63
2022/05/11 12:17:30;;;;;;;1.63;1.52;;;;;;;30.40;31.09;96291.03;5055297;27;103811;-63